Chetwynd, Canada
Current Conditions -  °F | °C
As of 8:24 AM on Thursday 18 Dec 2014 (Local Time) from CYXJ Reporting Station
Moderate Fog Moderate Fog  
Wind Chill: -4°   Ceiling: 200
Heat Index:   Visibility: 0.25mi
Dew Point:   Wind: 5mph
Humidity: 85%   Direction: 120°ESE
Pressure: 29.76"   Gusts: NA
Location:  55.7°N, 121.63°W
Report Text: CYXJ 181524Z 12004KT 1/4SM FZFG VV002 M15/M17 A2976 RMK FG8 SLP135
Loading
Personal Weather Stations






























Interactive Weather Map New forecast layout! Learn more

10-Day Weather Forecast

Advertisements
Track Severe Weather on mobile